sensor_id;sensor_type;location;lat;lon;timestamp;pressure;altitude;pressure_sealevel;temperature;humidity
58690;BME280;44470;53.206;-6.106;2022-12-07T00:02:03;102700.13;;;21.71;51.57
58690;BME280;44470;53.206;-6.106;2022-12-07T00:04:29;102698.34;;;21.70;51.25
58690;BME280;44470;53.206;-6.106;2022-12-07T00:06:57;102685.78;;;21.62;51.13
58690;BME280;44470;53.206;-6.106;2022-12-07T00:09:23;102686.72;;;21.68;51.19
58690;BME280;44470;53.206;-6.106;2022-12-07T00:11:50;102684.06;;;21.66;50.94
58690;BME280;44470;53.206;-6.106;2022-12-07T00:14:17;102687.63;;;21.65;51.06
58690;BME280;44470;53.206;-6.106;2022-12-07T00:16:43;102684.06;;;21.66;50.99
58690;BME280;44470;53.206;-6.106;2022-12-07T00:19:19;102667.06;;;21.66;50.63
58690;BME280;44470;53.206;-6.106;2022-12-07T00:21:45;102683.16;;;21.72;51.08
58690;BME280;44470;53.206;-6.106;2022-12-07T00:24:15;102691.22;;;21.70;51.24
58690;BME280;44470;53.206;-6.106;2022-12-07T00:26:42;102679.56;;;21.70;51.29
58690;BME280;44470;53.206;-6.106;2022-12-07T00:29:19;102681.34;;;21.65;50.93
58690;BME280;44470;53.206;-6.106;2022-12-07T00:31:45;102685.84;;;21.67;51.10
58690;BME280;44470;53.206;-6.106;2022-12-07T00:34:14;102676.00;;;21.68;50.76
58690;BME280;44470;53.206;-6.106;2022-12-07T00:36:40;102673.34;;;21.66;50.74
58690;BME280;44470;53.206;-6.106;2022-12-07T00:39:06;102670.63;;;21.68;50.24
58690;BME280;44470;53.206;-6.106;2022-12-07T00:41:31;102665.28;;;21.68;50.62
58690;BME280;44470;53.206;-6.106;2022-12-07T00:43:57;102665.28;;;21.71;50.26
58690;BME280;44470;53.206;-6.106;2022-12-07T00:46:23;102653.69;;;21.64;50.43
58690;BME280;44470;53.206;-6.106;2022-12-07T00:48:53;102651.91;;;21.66;50.53
58690;BME280;44470;53.206;-6.106;2022-12-07T00:51:24;102645.56;;;21.56;50.77
58690;BME280;44470;53.206;-6.106;2022-12-07T00:53:54;102663.50;;;21.67;50.85
58690;BME280;44470;53.206;-6.106;2022-12-07T00:56:22;102668.84;;;21.67;50.81
58690;BME280;44470;53.206;-6.106;2022-12-07T00:59:10;102675.16;;;21.81;50.64
58690;BME280;44470;53.206;-6.106;2022-12-07T01:01:44;102667.06;;;21.69;50.45
58690;BME280;44470;53.206;-6.106;2022-12-07T01:04:09;102672.41;;;21.66;50.65
58690;BME280;44470;53.206;-6.106;2022-12-07T01:06:35;102656.31;;;21.62;50.40
58690;BME280;44470;53.206;-6.106;2022-12-07T01:09:01;102657.19;;;21.60;50.48
58690;BME280;44470;53.206;-6.106;2022-12-07T01:11:34;102667.00;;;21.62;50.57
58690;BME280;44470;53.206;-6.106;2022-12-07T01:14:01;102659.91;;;21.65;50.35
58690;BME280;44470;53.206;-6.106;2022-12-07T01:16:35;102654.50;;;21.58;50.18
58690;BME280;44470;53.206;-6.106;2022-12-07T01:19:02;102664.34;;;21.62;50.09
58690;BME280;44470;53.206;-6.106;2022-12-07T01:21:32;102673.28;;;21.63;50.57
58690;BME280;44470;53.206;-6.106;2022-12-07T01:24:03;102660.75;;;21.60;50.23
58690;BME280;44470;53.206;-6.106;2022-12-07T01:26:33;102650.03;;;21.57;50.24
58690;BME280;44470;53.206;-6.106;2022-12-07T01:29:07;102657.22;;;21.63;50.07
58690;BME280;44470;53.206;-6.106;2022-12-07T01:31:33;102650.94;;;21.58;50.09
58690;BME280;44470;53.206;-6.106;2022-12-07T01:34:00;102654.53;;;21.63;50.31
58690;BME280;44470;53.206;-6.106;2022-12-07T01:36:29;102657.22;;;21.65;50.02
58690;BME280;44470;53.206;-6.106;2022-12-07T01:39:06;102651.84;;;21.61;50.04
58690;BME280;44470;53.206;-6.106;2022-12-07T01:41:39;102661.72;;;21.64;50.08
58690;BME280;44470;53.206;-6.106;2022-12-07T01:44:29;102632.16;;;21.53;49.79
58690;BME280;44470;53.206;-6.106;2022-12-07T01:46:59;102649.16;;;21.61;50.01
58690;BME280;44470;53.206;-6.106;2022-12-07T01:49:49;102650.09;;;21.67;50.13
58690;BME280;44470;53.206;-6.106;2022-12-07T01:54:46;102648.31;;;21.64;49.72
58690;BME280;44470;53.206;-6.106;2022-12-07T01:57:41;102646.50;;;21.65;49.95
58690;BME280;44470;53.206;-6.106;2022-12-07T02:00:10;102643.81;;;21.60;49.86
58690;BME280;44470;53.206;-6.106;2022-12-07T02:03:09;102650.06;;;21.62;50.12
58690;BME280;44470;53.206;-6.106;2022-12-07T02:05:38;102654.56;;;21.65;49.93
58690;BME280;44470;53.206;-6.106;2022-12-07T02:08:07;102643.84;;;21.68;49.57
58690;BME280;44470;53.206;-6.106;2022-12-07T02:10:52;102654.56;;;21.66;49.77
58690;BME280;44470;53.206;-6.106;2022-12-07T02:13:40;102648.25;;;21.62;49.63
58690;BME280;44470;53.206;-6.106;2022-12-07T02:27:33;102640.25;;;21.66;49.89
58690;BME280;44470;53.206;-6.106;2022-12-07T02:30:19;102634.84;;;21.59;49.77
58690;BME280;44470;53.206;-6.106;2022-12-07T02:33:02;102638.47;;;21.65;49.58
58690;BME280;44470;53.206;-6.106;2022-12-07T02:35:48;102640.28;;;21.64;49.63
58690;BME280;44470;53.206;-6.106;2022-12-07T02:38:50;102632.25;;;21.64;49.60
58690;BME280;44470;53.206;-6.106;2022-12-07T02:41:29;102636.66;;;21.60;49.83
58690;BME280;44470;53.206;-6.106;2022-12-07T02:44:08;102635.78;;;21.63;49.89
58690;BME280;44470;53.206;-6.106;2022-12-07T02:46:53;102625.03;;;21.58;49.39
58690;BME280;44470;53.206;-6.106;2022-12-07T02:49:26;102642.91;;;21.62;49.80
58690;BME280;44470;53.206;-6.106;2022-12-07T02:51:52;102636.69;;;21.63;49.76
58690;BME280;44470;53.206;-6.106;2022-12-07T02:54:20;102635.81;;;21.69;49.74
58690;BME280;44470;53.206;-6.106;2022-12-07T02:57:29;102640.28;;;21.69;49.82
58690;BME280;44470;53.206;-6.106;2022-12-07T03:00:28;102627.78;;;21.69;49.43
58690;BME280;44470;53.206;-6.106;2022-12-07T03:03:07;102631.34;;;21.67;49.74
58690;BME280;44470;53.206;-6.106;2022-12-07T03:10:56;102608.09;;;21.66;49.38
58690;BME280;44470;53.206;-6.106;2022-12-07T03:16:38;102616.19;;;21.73;49.51
58690;BME280;44470;53.206;-6.106;2022-12-07T03:19:22;102611.69;;;21.68;49.48
58690;BME280;44470;53.206;-6.106;2022-12-07T03:22:10;102610.81;;;21.67;49.66
58690;BME280;44470;53.206;-6.106;2022-12-07T03:24:58;102609.91;;;21.67;49.38
58690;BME280;44470;53.206;-6.106;2022-12-07T03:27:35;102610.78;;;21.66;49.65
58690;BME280;44470;53.206;-6.106;2022-12-07T03:30:17;102616.16;;;21.67;49.50
58690;BME280;44470;53.206;-6.106;2022-12-07T03:33:11;102609.00;;;21.68;49.29
58690;BME280;44470;53.206;-6.106;2022-12-07T03:35:52;102611.69;;;21.71;49.52
58690;BME280;44470;53.206;-6.106;2022-12-07T03:38:55;102597.38;;;21.66;49.20
58690;BME280;44470;53.206;-6.106;2022-12-07T03:41:42;102606.34;;;21.71;49.29
58690;BME280;44470;53.206;-6.106;2022-12-07T03:44:24;102599.22;;;21.76;49.39
58690;BME280;44470;53.206;-6.106;2022-12-07T03:47:01;102597.44;;;21.80;49.10
58690;BME280;44470;53.206;-6.106;2022-12-07T03:50:05;102600.97;;;21.71;49.29
58690;BME280;44470;53.206;-6.106;2022-12-07T03:52:42;102602.75;;;21.72;49.22
58690;BME280;44470;53.206;-6.106;2022-12-07T03:55:35;102595.63;;;21.71;49.26
58690;BME280;44470;53.206;-6.106;2022-12-07T03:58:09;102593.81;;;21.67;49.32
58690;BME280;44470;53.206;-6.106;2022-12-07T04:00:38;102595.63;;;21.66;49.38
58690;BME280;44470;53.206;-6.106;2022-12-07T04:03:03;102582.16;;;21.58;49.40
58690;BME280;44470;53.206;-6.106;2022-12-07T04:05:29;102596.53;;;21.71;49.56
58690;BME280;44470;53.206;-6.106;2022-12-07T04:07:55;102595.66;;;21.77;48.87
58690;BME280;44470;53.206;-6.106;2022-12-07T04:10:20;102592.06;;;21.80;49.17
58690;BME280;44470;53.206;-6.106;2022-12-07T04:12:46;102591.19;;;21.79;48.94
58690;BME280;44470;53.206;-6.106;2022-12-07T04:15:12;102590.28;;;21.80;49.16
58690;BME280;44470;53.206;-6.106;2022-12-07T04:17:38;102581.34;;;21.78;48.80
58690;BME280;44470;53.206;-6.106;2022-12-07T04:20:08;102578.69;;;21.78;49.19
58690;BME280;44470;53.206;-6.106;2022-12-07T04:22:33;102579.56;;;21.80;49.06
58690;BME280;44470;53.206;-6.106;2022-12-07T04:25:00;102572.44;;;21.76;48.97
58690;BME280;44470;53.206;-6.106;2022-12-07T04:27:26;102571.50;;;21.75;49.00
58690;BME280;44470;53.206;-6.106;2022-12-07T04:29:51;102575.09;;;21.76;49.19
58690;BME280;44470;53.206;-6.106;2022-12-07T04:32:17;102565.25;;;21.67;49.12
58690;BME280;44470;53.206;-6.106;2022-12-07T04:34:42;102574.19;;;21.75;49.23
58690;BME280;44470;53.206;-6.106;2022-12-07T04:37:08;102567.03;;;21.77;48.85
58690;BME280;44470;53.206;-6.106;2022-12-07T04:39:33;102567.06;;;21.79;49.13
58690;BME280;44470;53.206;-6.106;2022-12-07T04:42:02;102565.25;;;21.72;49.27
58690;BME280;44470;53.206;-6.106;2022-12-07T04:44:28;102553.63;;;21.67;49.34
58690;BME280;44470;53.206;-6.106;2022-12-07T04:46:55;102555.41;;;21.74;48.94
58690;BME280;44470;53.206;-6.106;2022-12-07T04:49:21;102560.78;;;21.78;48.88
58690;BME280;44470;53.206;-6.106;2022-12-07T04:51:47;102556.34;;;21.76;49.12
58690;BME280;44470;53.206;-6.106;2022-12-07T04:54:14;102559.00;;;21.73;49.18
58690;BME280;44470;53.206;-6.106;2022-12-07T04:57:02;102551.88;;;21.83;49.06
58690;BME280;44470;53.206;-6.106;2022-12-07T04:59:27;102533.97;;;21.65;49.07
58690;BME280;44470;53.206;-6.106;2022-12-07T05:01:53;102552.75;;;21.74;49.32
58690;BME280;44470;53.206;-6.106;2022-12-07T05:04:18;102546.50;;;21.75;49.15
58690;BME280;44470;53.206;-6.106;2022-12-07T05:06:45;102555.44;;;21.78;49.12
58690;BME280;44470;53.206;-6.106;2022-12-07T05:09:11;102552.78;;;21.77;49.16
58690;BME280;44470;53.206;-6.106;2022-12-07T05:11:36;102552.78;;;21.80;48.72
58690;BME280;44470;53.206;-6.106;2022-12-07T05:16:32;102546.50;;;21.76;49.19
58690;BME280;44470;53.206;-6.106;2022-12-07T05:18:58;102557.22;;;21.83;49.00
58690;BME280;44470;53.206;-6.106;2022-12-07T05:21:23;102553.66;;;21.79;49.04
58690;BME280;44470;53.206;-6.106;2022-12-07T05:23:57;102559.00;;;21.81;48.85
58690;BME280;44470;53.206;-6.106;2022-12-07T05:26:23;102562.59;;;21.83;48.88
58690;BME280;44470;53.206;-6.106;2022-12-07T05:28:55;102544.72;;;21.86;48.67
58690;BME280;44470;53.206;-6.106;2022-12-07T05:31:23;102557.22;;;21.76;48.73
58690;BME280;44470;53.206;-6.106;2022-12-07T05:33:49;102561.69;;;21.74;48.96
58690;BME280;44470;53.206;-6.106;2022-12-07T05:36:15;102555.41;;;21.74;48.80
58690;BME280;44470;53.206;-6.106;2022-12-07T05:38:40;102556.31;;;21.73;48.97
58690;BME280;44470;53.206;-6.106;2022-12-07T05:41:07;102548.28;;;21.68;48.92
58690;BME280;44470;53.206;-6.106;2022-12-07T05:43:59;102549.19;;;21.75;48.81
58690;BME280;44470;53.206;-6.106;2022-12-07T05:46:29;102560.81;;;21.80;48.76
58690;BME280;44470;53.206;-6.106;2022-12-07T05:48:54;102565.28;;;21.81;48.98
58690;BME280;44470;53.206;-6.106;2022-12-07T05:51:20;102553.66;;;21.74;49.08
58690;BME280;44470;53.206;-6.106;2022-12-07T05:53:45;102548.28;;;21.74;48.63
58690;BME280;44470;53.206;-6.106;2022-12-07T05:56:11;102554.53;;;21.76;48.94
58690;BME280;44470;53.206;-6.106;2022-12-07T05:58:37;102559.91;;;21.75;48.83
58690;BME280;44470;53.206;-6.106;2022-12-07T06:01:22;102557.22;;;21.76;49.09
58690;BME280;44470;53.206;-6.106;2022-12-07T06:03:48;102557.22;;;21.75;48.70
58690;BME280;44470;53.206;-6.106;2022-12-07T06:06:13;102553.66;;;21.76;48.98
58690;BME280;44470;53.206;-6.106;2022-12-07T06:08:39;102551.00;;;21.79;48.89
58690;BME280;44470;53.206;-6.106;2022-12-07T06:11:04;102533.06;;;21.69;49.00
58690;BME280;44470;53.206;-6.106;2022-12-07T06:13:49;102550.06;;;21.75;48.77
58690;BME280;44470;53.206;-6.106;2022-12-07T06:16:15;102547.41;;;21.78;49.02
58690;BME280;44470;53.206;-6.106;2022-12-07T06:18:41;102540.25;;;21.76;48.86
58690;BME280;44470;53.206;-6.106;2022-12-07T06:21:06;102536.66;;;21.74;48.91
58690;BME280;44470;53.206;-6.106;2022-12-07T06:23:32;102536.69;;;21.75;48.96
58690;BME280;44470;53.206;-6.106;2022-12-07T06:25:57;102528.63;;;21.75;49.03
58690;BME280;44470;53.206;-6.106;2022-12-07T06:28:23;102533.97;;;21.74;48.97
58690;BME280;44470;53.206;-6.106;2022-12-07T06:30:59;102534.88;;;21.77;48.99
58690;BME280;44470;53.206;-6.106;2022-12-07T06:33:28;102535.78;;;21.78;48.83
58690;BME280;44470;53.206;-6.106;2022-12-07T06:35:54;102524.19;;;21.76;48.93
58690;BME280;44470;53.206;-6.106;2022-12-07T06:38:20;102532.22;;;21.79;48.78
58690;BME280;44470;53.206;-6.106;2022-12-07T06:40:45;102536.69;;;21.77;49.12
58690;BME280;44470;53.206;-6.106;2022-12-07T06:43:12;102513.44;;;21.70;49.09
58690;BME280;44470;53.206;-6.106;2022-12-07T06:45:37;102527.75;;;21.76;48.94
58690;BME280;44470;53.206;-6.106;2022-12-07T06:48:03;102518.81;;;21.76;49.06
58690;BME280;44470;53.206;-6.106;2022-12-07T06:50:28;102518.81;;;21.82;48.84
58690;BME280;44470;53.206;-6.106;2022-12-07T06:52:55;102525.06;;;21.84;48.88
58690;BME280;44470;53.206;-6.106;2022-12-07T06:55:24;102517.03;;;21.84;48.59
58690;BME280;44470;53.206;-6.106;2022-12-07T06:57:51;102515.25;;;21.80;48.75
58690;BME280;44470;53.206;-6.106;2022-12-07T07:00:17;102517.03;;;21.81;48.85
58690;BME280;44470;53.206;-6.106;2022-12-07T07:02:42;102519.69;;;21.83;48.98
58690;BME280;44470;53.206;-6.106;2022-12-07T07:05:08;102521.50;;;21.77;48.99
58690;BME280;44470;53.206;-6.106;2022-12-07T07:07:34;102525.06;;;21.78;48.63
58690;BME280;44470;53.206;-6.106;2022-12-07T07:10:00;102516.13;;;21.74;48.92
58690;BME280;44470;53.206;-6.106;2022-12-07T07:12:26;102513.44;;;21.74;48.69
58690;BME280;44470;53.206;-6.106;2022-12-07T07:14:54;102513.47;;;21.79;48.94
58690;BME280;44470;53.206;-6.106;2022-12-07T07:17:21;102514.34;;;21.78;48.75
58690;BME280;44470;53.206;-6.106;2022-12-07T07:19:47;102505.41;;;21.82;48.69
58690;BME280;44470;53.206;-6.106;2022-12-07T07:22:15;102513.47;;;21.82;48.87
58690;BME280;44470;53.206;-6.106;2022-12-07T07:24:41;102503.63;;;21.84;48.57
58690;BME280;44470;53.206;-6.106;2022-12-07T07:27:06;102501.84;;;21.82;48.64
58690;BME280;44470;53.206;-6.106;2022-12-07T07:29:32;102507.22;;;21.83;48.60
58690;BME280;44470;53.206;-6.106;2022-12-07T07:31:57;102511.69;;;21.84;48.93
58690;BME280;44470;53.206;-6.106;2022-12-07T07:34:23;102499.16;;;21.77;48.56
58690;BME280;44470;53.206;-6.106;2022-12-07T07:36:48;102505.41;;;21.84;48.71
58690;BME280;44470;53.206;-6.106;2022-12-07T07:39:14;102513.47;;;21.79;49.18
58690;BME280;44470;53.206;-6.106;2022-12-07T07:41:39;102510.78;;;21.79;49.24
58690;BME280;44470;53.206;-6.106;2022-12-07T07:44:12;102510.78;;;21.79;49.05
58690;BME280;44470;53.206;-6.106;2022-12-07T07:46:37;102501.81;;;21.74;49.56
58690;BME280;44470;53.206;-6.106;2022-12-07T07:49:03;102523.28;;;21.80;51.57
58690;BME280;44470;53.206;-6.106;2022-12-07T07:51:28;102518.81;;;21.90;55.02
58690;BME280;44470;53.206;-6.106;2022-12-07T07:53:54;102524.19;;;21.88;53.37
58690;BME280;44470;53.206;-6.106;2022-12-07T07:56:19;102523.28;;;21.88;52.55
58690;BME280;44470;53.206;-6.106;2022-12-07T07:58:45;102520.59;;;21.86;51.68
58690;BME280;44470;53.206;-6.106;2022-12-07T08:01:10;102517.94;;;21.83;51.04
58690;BME280;44470;53.206;-6.106;2022-12-07T08:03:37;102516.13;;;21.81;51.27
58690;BME280;44470;53.206;-6.106;2022-12-07T08:06:03;102527.75;;;21.81;50.73
58690;BME280;44470;53.206;-6.106;2022-12-07T08:08:29;102517.03;;;21.81;50.81
58690;BME280;44470;53.206;-6.106;2022-12-07T08:10:57;102521.50;;;21.82;50.27
58690;BME280;44470;53.206;-6.106;2022-12-07T08:13:46;102525.97;;;21.83;50.25
58690;BME280;44470;53.206;-6.106;2022-12-07T08:16:13;102509.88;;;21.78;49.90
58690;BME280;44470;53.206;-6.106;2022-12-07T08:18:43;102528.66;;;21.83;50.14
58690;BME280;44470;53.206;-6.106;2022-12-07T08:21:15;102534.91;;;21.85;49.96
58690;BME280;44470;53.206;-6.106;2022-12-07T08:23:41;102535.78;;;21.86;49.96
58690;BME280;44470;53.206;-6.106;2022-12-07T08:26:10;102535.78;;;21.83;49.54
58690;BME280;44470;53.206;-6.106;2022-12-07T08:28:54;102531.34;;;21.80;49.61
58690;BME280;44470;53.206;-6.106;2022-12-07T08:31:19;102534.91;;;21.91;49.72
58690;BME280;44470;53.206;-6.106;2022-12-07T08:33:46;102529.53;;;21.88;49.65
58690;BME280;44470;53.206;-6.106;2022-12-07T08:36:13;102525.97;;;21.86;49.66
58690;BME280;44470;53.206;-6.106;2022-12-07T08:38:40;102531.31;;;21.86;49.80
58690;BME280;44470;53.206;-6.106;2022-12-07T08:41:08;102530.44;;;21.84;49.83
58690;BME280;44470;53.206;-6.106;2022-12-07T08:43:36;102532.22;;;21.81;49.61
58690;BME280;44470;53.206;-6.106;2022-12-07T08:48:57;102529.53;;;21.84;49.80
58690;BME280;44470;53.206;-6.106;2022-12-07T08:51:24;102525.97;;;21.80;49.31
58690;BME280;44470;53.206;-6.106;2022-12-07T08:53:56;102525.97;;;21.83;49.66
58690;BME280;44470;53.206;-6.106;2022-12-07T08:56:24;102527.75;;;21.83;49.57
58690;BME280;44470;53.206;-6.106;2022-12-07T08:58:50;102525.06;;;21.81;49.48
58690;BME280;44470;53.206;-6.106;2022-12-07T09:01:29;102525.97;;;21.80;49.39
58690;BME280;44470;53.206;-6.106;2022-12-07T09:03:55;102527.75;;;21.84;49.30
58690;BME280;44470;53.206;-6.106;2022-12-07T09:06:26;102516.16;;;21.79;49.65
58690;BME280;44470;53.206;-6.106;2022-12-07T09:08:57;102517.91;;;21.85;49.08
58690;BME280;44470;53.206;-6.106;2022-12-07T09:11:24;102515.25;;;21.83;49.31
58690;BME280;44470;53.206;-6.106;2022-12-07T09:13:50;102514.34;;;21.86;49.56
58690;BME280;44470;53.206;-6.106;2022-12-07T09:16:15;102510.78;;;21.82;49.31
58690;BME280;44470;53.206;-6.106;2022-12-07T09:18:41;102517.03;;;21.81;49.30
58690;BME280;44470;53.206;-6.106;2022-12-07T09:21:08;102499.16;;;21.83;49.05
58690;BME280;44470;53.206;-6.106;2022-12-07T09:23:37;102507.19;;;21.82;49.16
58690;BME280;44470;53.206;-6.106;2022-12-07T09:26:03;102508.97;;;21.83;49.37
58690;BME280;44470;53.206;-6.106;2022-12-07T09:28:33;102510.78;;;21.82;49.40
58690;BME280;44470;53.206;-6.106;2022-12-07T09:31:03;102524.19;;;21.82;49.22
58690;BME280;44470;53.206;-6.106;2022-12-07T09:33:29;102514.34;;;21.83;49.23
58690;BME280;44470;53.206;-6.106;2022-12-07T09:35:55;102515.25;;;21.83;49.19
58690;BME280;44470;53.206;-6.106;2022-12-07T09:38:20;102521.47;;;21.84;49.06
58690;BME280;44470;53.206;-6.106;2022-12-07T09:40:47;102520.59;;;21.83;49.09
58690;BME280;44470;53.206;-6.106;2022-12-07T09:43:29;102522.41;;;21.87;49.23
58690;BME280;44470;53.206;-6.106;2022-12-07T09:45:56;102522.41;;;21.84;49.11
58690;BME280;44470;53.206;-6.106;2022-12-07T09:48:32;102517.91;;;21.85;49.10
58690;BME280;44470;53.206;-6.106;2022-12-07T09:51:00;102523.28;;;21.82;49.33
58690;BME280;44470;53.206;-6.106;2022-12-07T09:53:34;102523.28;;;21.85;49.24
58690;BME280;44470;53.206;-6.106;2022-12-07T09:56:02;102522.38;;;21.86;49.07
58690;BME280;44470;53.206;-6.106;2022-12-07T09:58:33;102523.28;;;21.85;49.08
58690;BME280;44470;53.206;-6.106;2022-12-07T10:01:09;102529.53;;;21.85;49.17
58690;BME280;44470;53.206;-6.106;2022-12-07T10:03:39;102525.06;;;21.84;48.85
58690;BME280;44470;53.206;-6.106;2022-12-07T10:06:05;102533.13;;;21.84;48.78
58690;BME280;44470;53.206;-6.106;2022-12-07T10:08:33;102521.47;;;21.87;48.81
58690;BME280;44470;53.206;-6.106;2022-12-07T10:11:02;102524.19;;;21.85;48.96
58690;BME280;44470;53.206;-6.106;2022-12-07T10:13:46;102517.94;;;21.86;49.20
58690;BME280;44470;53.206;-6.106;2022-12-07T10:16:52;102514.34;;;21.86;48.98
58690;BME280;44470;53.206;-6.106;2022-12-07T10:19:25;102513.44;;;21.87;48.76
58690;BME280;44470;53.206;-6.106;2022-12-07T10:22:15;102510.75;;;21.87;48.64
58690;BME280;44470;53.206;-6.106;2022-12-07T10:24:43;102514.34;;;21.86;48.86
58690;BME280;44470;53.206;-6.106;2022-12-07T10:27:31;102517.94;;;21.86;48.99
58690;BME280;44470;53.206;-6.106;2022-12-07T10:29:59;102510.78;;;21.82;49.16
58690;BME280;44470;53.206;-6.106;2022-12-07T10:32:32;102510.78;;;21.85;49.00
58690;BME280;44470;53.206;-6.106;2022-12-07T10:37:51;102510.78;;;21.85;48.64
58690;BME280;44470;53.206;-6.106;2022-12-07T10:46:04;102494.69;;;21.87;49.16
58690;BME280;44470;53.206;-6.106;2022-12-07T10:48:35;102491.13;;;21.83;49.00
58690;BME280;44470;53.206;-6.106;2022-12-07T10:54:51;102477.72;;;21.86;48.92
58690;BME280;44470;53.206;-6.106;2022-12-07T11:00:24;102473.25;;;21.85;48.62
58690;BME280;44470;53.206;-6.106;2022-12-07T11:11:38;102459.84;;;21.90;48.65
58690;BME280;44470;53.206;-6.106;2022-12-07T11:37:41;102424.13;;;21.86;48.78
58690;BME280;44470;53.206;-6.106;2022-12-07T11:43:24;102422.31;;;21.81;48.72
58690;BME280;44470;53.206;-6.106;2022-12-07T11:46:12;102434.84;;;21.86;48.84
58690;BME280;44470;53.206;-6.106;2022-12-07T11:51:34;102432.13;;;21.91;48.60
58690;BME280;44470;53.206;-6.106;2022-12-07T11:54:16;102433.03;;;21.91;48.66
58690;BME280;44470;53.206;-6.106;2022-12-07T11:56:43;102417.84;;;21.86;48.46
58690;BME280;44470;53.206;-6.106;2022-12-07T11:59:42;102413.41;;;21.86;48.41
58690;BME280;44470;53.206;-6.106;2022-12-07T12:02:31;102414.28;;;21.88;48.84
58690;BME280;44470;53.206;-6.106;2022-12-07T12:05:19;102412.47;;;21.89;48.79
58690;BME280;44470;53.206;-6.106;2022-12-07T12:08:15;102402.66;;;21.88;48.66
58690;BME280;44470;53.206;-6.106;2022-12-07T12:19:05;102390.16;;;21.91;48.38
58690;BME280;44470;53.206;-6.106;2022-12-07T12:21:39;102385.66;;;21.92;48.43
58690;BME280;44470;53.206;-6.106;2022-12-07T12:24:18;102383.88;;;21.88;48.63
58690;BME280;44470;53.206;-6.106;2022-12-07T12:27:01;102382.97;;;21.92;48.45
58690;BME280;44470;53.206;-6.106;2022-12-07T12:29:38;102388.34;;;21.94;48.58
58690;BME280;44470;53.206;-6.106;2022-12-07T12:32:17;102368.69;;;21.95;48.40
58690;BME280;44470;53.206;-6.106;2022-12-07T12:35:28;102363.34;;;21.95;48.56
58690;BME280;44470;53.206;-6.106;2022-12-07T12:40:42;102357.09;;;21.89;48.66
58690;BME280;44470;53.206;-6.106;2022-12-07T12:46:38;102352.63;;;21.91;48.59
58690;BME280;44470;53.206;-6.106;2022-12-07T12:59:59;102346.31;;;21.97;48.62
58690;BME280;44470;53.206;-6.106;2022-12-07T13:05:25;102343.66;;;21.96;48.85
58690;BME280;44470;53.206;-6.106;2022-12-07T13:07:54;102340.09;;;22.00;48.59
58690;BME280;44470;53.206;-6.106;2022-12-07T13:29:16;102325.78;;;22.01;48.61
58690;BME280;44470;53.206;-6.106;2022-12-07T13:32:03;102324.00;;;22.01;48.53
58690;BME280;44470;53.206;-6.106;2022-12-07T13:34:40;102318.66;;;22.01;48.57
58690;BME280;44470;53.206;-6.106;2022-12-07T13:39:58;102322.19;;;22.08;48.26
58690;BME280;44470;53.206;-6.106;2022-12-07T13:44:54;102310.44;;;22.32;47.70
58690;BME280;44470;53.206;-6.106;2022-12-07T13:47:41;102304.19;;;22.30;47.61
58690;BME280;44470;53.206;-6.106;2022-12-07T13:50:29;102303.31;;;22.28;47.65
58690;BME280;44470;53.206;-6.106;2022-12-07T13:52:59;102296.97;;;22.45;46.97
58690;BME280;44470;53.206;-6.106;2022-12-07T13:55:43;102298.81;;;22.35;47.53
58690;BME280;44470;53.206;-6.106;2022-12-07T13:58:14;102281.00;;;22.21;47.53
58690;BME280;44470;53.206;-6.106;2022-12-07T14:00:41;102290.81;;;22.26;47.33
58690;BME280;44470;53.206;-6.106;2022-12-07T14:08:30;102281.03;;;22.15;47.77
58690;BME280;44470;53.206;-6.106;2022-12-07T14:10:57;102278.38;;;22.14;47.66
58690;BME280;44470;53.206;-6.106;2022-12-07T14:19:59;102273.03;;;22.11;47.92
58690;BME280;44470;53.206;-6.106;2022-12-07T14:22:53;102267.66;;;22.11;47.75
58690;BME280;44470;53.206;-6.106;2022-12-07T14:25:48;102272.13;;;22.10;47.98
58690;BME280;44470;53.206;-6.106;2022-12-07T14:28:32;102269.47;;;22.04;48.09
58690;BME280;44470;53.206;-6.106;2022-12-07T14:31:12;102268.56;;;22.06;47.94
58690;BME280;44470;53.206;-6.106;2022-12-07T14:33:41;102261.41;;;22.07;48.22
58690;BME280;44470;53.206;-6.106;2022-12-07T14:36:31;102262.31;;;22.08;47.99
58690;BME280;44470;53.206;-6.106;2022-12-07T14:38:57;102243.56;;;22.00;47.89
58690;BME280;44470;53.206;-6.106;2022-12-07T14:41:28;102254.22;;;22.12;47.72
58690;BME280;44470;53.206;-6.106;2022-12-07T14:44:13;102242.63;;;22.07;47.65
58690;BME280;44470;53.206;-6.106;2022-12-07T14:46:38;102248.00;;;22.12;47.77
58690;BME280;44470;53.206;-6.106;2022-12-07T14:49:07;102241.78;;;22.02;47.89
58690;BME280;44470;53.206;-6.106;2022-12-07T14:51:48;102246.16;;;22.18;47.69
58690;BME280;44470;53.206;-6.106;2022-12-07T14:54:18;102250.66;;;22.10;47.81
58690;BME280;44470;53.206;-6.106;2022-12-07T14:56:47;102239.97;;;22.04;47.93
58690;BME280;44470;53.206;-6.106;2022-12-07T14:59:17;102239.09;;;21.97;48.06
58690;BME280;44470;53.206;-6.106;2022-12-07T15:01:45;102230.16;;;21.98;48.34
58690;BME280;44470;53.206;-6.106;2022-12-07T15:04:16;102234.63;;;22.01;48.08
58690;BME280;44470;53.206;-6.106;2022-12-07T15:06:55;102224.78;;;22.03;48.11
58690;BME280;44470;53.206;-6.106;2022-12-07T15:09:21;102222.13;;;22.00;48.40
58690;BME280;44470;53.206;-6.106;2022-12-07T15:11:47;102218.53;;;22.01;48.40
58690;BME280;44470;53.206;-6.106;2022-12-07T15:14:12;102222.13;;;22.00;48.41
58690;BME280;44470;53.206;-6.106;2022-12-07T15:16:40;102221.22;;;21.99;48.21
58690;BME280;44470;53.206;-6.106;2022-12-07T15:19:39;102223.91;;;22.01;48.34
58690;BME280;44470;53.206;-6.106;2022-12-07T15:22:08;102220.31;;;22.06;48.41
58690;BME280;44470;53.206;-6.106;2022-12-07T15:24:37;102210.50;;;22.01;48.23
58690;BME280;44470;53.206;-6.106;2022-12-07T15:27:03;102216.75;;;22.00;48.31
58690;BME280;44470;53.206;-6.106;2022-12-07T15:29:30;102208.72;;;21.98;48.05
58690;BME280;44470;53.206;-6.106;2022-12-07T15:32:00;102202.50;;;21.95;48.13